Time,TemperatureF,DewpointF,PressureIn,WindDirection,WindDirectionDegrees,WindSpeedMPH,WindSpeedGustMPH,Humidity,HourlyPrecipIn,Conditions,Clouds,dailyrainin,SoftwareType,DateUTC
2013-09-26 00:01:00,53.0,47.4,29.93,NE,39,1.0,2.0,81,0.00,,,0.00,WUHU216DAVISVP2,2013-09-26 04:01:00,
2013-09-26 00:06:00,52.8,47.5,29.93,NNE,20,0.0,2.0,82,0.00,,,0.00,WUHU216DAVISVP2,2013-09-26 04:06:00,
2013-09-26 00:11:00,52.6,47.9,29.93,NNE,18,0.0,1.0,84,0.00,,,0.00,WUHU216DAVISVP2,2013-09-26 04:11:00,
2013-09-26 00:16:00,52.4,47.7,29.93,NNE,17,0.0,1.0,84,0.00,,,0.00,WUHU216DAVISVP2,2013-09-26 04:16:00,
2013-09-26 00:21:00,52.2,47.8,29.93,NNE,17,0.0,1.0,85,0.00,,,0.00,WUHU216DAVISVP2,2013-09-26 04:21:00,
2013-09-26 00:26:00,52.0,47.9,29.93,NNE,17,0.0,1.0,86,0.00,,,0.00,WUHU216DAVISVP2,2013-09-26 04:26:00,
2013-09-26 00:31:00,51.8,47.7,29.93,NNE,18,0.0,1.0,86,0.00,,,0.00,WUHU216DAVISVP2,2013-09-26 04:31:00,
2013-09-26 00:36:00,51.7,47.9,29.93,NNE,18,0.0,1.0,87,0.00,,,0.00,WUHU216DAVISVP2,2013-09-26 04:36:00,
2013-09-26 00:41:00,51.4,47.9,29.93,NNE,17,0.0,1.0,88,0.00,,,0.00,WUHU216DAVISVP2,2013-09-26 04:41:00,
2013-09-26 00:46:00,51.1,47.6,29.93,NNE,18,0.0,1.0,88,0.00,,,0.00,WUHU216DAVISVP2,2013-09-26 04:46:00,
2013-09-26 00:51:00,50.8,47.6,29.93,NNE,18,0.0,1.0,89,0.00,,,0.00,WUHU216DAVISVP2,2013-09-26 04:51:00,
2013-09-26 00:56:00,50.6,47.7,29.93,NNE,17,0.0,0.0,90,0.00,,,0.00,WUHU216DAVISVP2,2013-09-26 04:56:00,
2013-09-26 01:01:00,50.4,47.5,29.93,NNE,17,0.0,0.0,90,0.00,,,0.00,WUHU216DAVISVP2,2013-09-26 05:01:00,
2013-09-26 01:06:00,50.2,47.6,29.93,NNE,18,0.0,0.0,91,0.00,,,0.00,WUHU216DAVISVP2,2013-09-26 05:06:00,
2013-09-26 01:11:00,50.0,47.4,29.93,NNE,17,0.0,0.0,91,0.00,,,0.00,WUHU216DAVISVP2,2013-09-26 05:11:00,
2013-09-26 01:16:00,49.9,47.9,29.93,NNE,17,0.0,0.0,93,0.00,,,0.00,WUHU216DAVISVP2,2013-09-26 05:16:00,
2013-09-26 01:21:00,49.9,47.9,29.93,NNE,18,0.0,0.0,93,0.00,,,0.00,WUHU216DAVISVP2,2013-09-26 05:21:00,
2013-09-26 01:26:00,49.9,47.9,29.93,NNE,18,0.0,0.0,93,0.00,,,0.00,WUHU216DAVISVP2,2013-09-26 05:26:00,
2013-09-26 01:31:00,49.8,47.8,29.93,NNE,17,0.0,0.0,93,0.00,,,0.00,WUHU216DAVISVP2,2013-09-26 05:31:00,
2013-09-26 01:36:00,49.9,47.9,29.93,NNE,17,0.0,0.0,93,0.00,,,0.00,WUHU216DAVISVP2,2013-09-26 05:36:00,
2013-09-26 01:41:00,49.8,47.8,29.93,NNE,18,0.0,1.0,93,0.00,,,0.00,WUHU216DAVISVP2,2013-09-26 05:41:00,
2013-09-26 01:46:00,49.9,48.2,29.93,NNE,17,0.0,1.0,94,0.00,,,0.00,WUHU216DAVISVP2,2013-09-26 05:46:00,
2013-09-26 01:51:00,49.9,47.9,29.94,NNE,17,0.0,1.0,93,0.00,,,0.00,WUHU216DAVISVP2,2013-09-26 05:51:00,
2013-09-26 01:56:00,49.7,47.7,29.93,NNE,18,0.0,1.0,93,0.00,,,0.00,WUHU216DAVISVP2,2013-09-26 05:56:00,
2013-09-26 02:01:00,49.4,47.4,29.93,NNE,17,0.0,1.0,93,0.00,,,0.00,WUHU216DAVISVP2,2013-09-26 06:01:00,
2013-09-26 02:06:00,49.1,47.1,29.93,NNE,18,0.0,1.0,93,0.00,,,0.00,WUHU216DAVISVP2,2013-09-26 06:06:00,
2013-09-26 02:11:00,48.9,46.9,29.93,NNE,17,0.0,0.0,93,0.00,,,0.00,WUHU216DAVISVP2,2013-09-26 06:11:00,
2013-09-26 02:16:00,48.4,46.4,29.94,NNE,17,0.0,0.0,93,0.00,,,0.00,WUHU216DAVISVP2,2013-09-26 06:16:00,
2013-09-26 02:21:00,48.1,46.4,29.94,NNE,17,0.0,0.0,94,0.00,,,0.00,WUHU216DAVISVP2,2013-09-26 06:21:00,
2013-09-26 02:26:00,48.1,46.7,29.94,NNE,17,0.0,0.0,95,0.00,,,0.00,WUHU216DAVISVP2,2013-09-26 06:26:00,
2013-09-26 02:31:00,48.1,46.7,29.93,NNE,18,0.0,0.0,95,0.00,,,0.00,WUHU216DAVISVP2,2013-09-26 06:31:00,
2013-09-26 02:36:00,48.0,46.6,29.93,NNE,17,0.0,0.0,95,0.00,,,0.00,WUHU216DAVISVP2,2013-09-26 06:36:00,
2013-09-26 02:41:00,48.0,46.9,29.93,NNE,18,0.0,0.0,96,0.00,,,0.00,WUHU216DAVISVP2,2013-09-26 06:41:00,
2013-09-26 02:46:00,48.4,47.3,29.93,NNE,17,0.0,0.0,96,0.00,,,0.00,WUHU216DAVISVP2,2013-09-26 06:46:00,
2013-09-26 02:51:00,48.4,47.3,29.93,NNE,17,0.0,0.0,96,0.00,,,0.00,WUHU216DAVISVP2,2013-09-26 06:51:00,
2013-09-26 02:56:00,48.3,46.9,29.94,NNE,17,0.0,0.0,95,0.00,,,0.00,WUHU216DAVISVP2,2013-09-26 06:56:00,
2013-09-26 03:01:00,48.4,47.3,29.93,NNE,17,0.0,0.0,96,0.00,,,0.00,WUHU216DAVISVP2,2013-09-26 07:01:00,
2013-09-26 03:06:00,48.2,47.1,29.93,NNE,18,0.0,1.0,96,0.00,,,0.00,WUHU216DAVISVP2,2013-09-26 07:06:00,
2013-09-26 03:11:00,48.3,47.2,29.93,NNE,17,0.0,1.0,96,0.00,,,0.00,WUHU216DAVISVP2,2013-09-26 07:11:00,
2013-09-26 03:16:00,48.5,47.7,29.93,NNE,18,0.0,1.0,97,0.00,,,0.00,WUHU216DAVISVP2,2013-09-26 07:16:00,
2013-09-26 03:21:00,48.2,47.1,29.93,NNE,18,0.0,1.0,96,0.00,,,0.00,WUHU216DAVISVP2,2013-09-26 07:21:00,
2013-09-26 03:26:00,48.3,47.5,29.94,NNE,18,1.0,1.0,97,0.00,,,0.00,WUHU216DAVISVP2,2013-09-26 07:26:00,
2013-09-26 03:31:00,48.8,48.0,29.94,NNE,18,0.0,1.0,97,0.00,,,0.00,WUHU216DAVISVP2,2013-09-26 07:31:00,
2013-09-26 03:36:00,48.9,48.1,29.93,NNE,17,0.0,1.0,97,0.00,,,0.00,WUHU216DAVISVP2,2013-09-26 07:36:00,
2013-09-26 03:41:00,49.2,48.4,29.93,NNE,17,0.0,1.0,97,0.00,,,0.00,WUHU216DAVISVP2,2013-09-26 07:41:00,
2013-09-26 03:46:00,49.2,48.4,29.94,NNE,18,1.0,1.0,97,0.00,,,0.00,WUHU216DAVISVP2,2013-09-26 07:46:00,
2013-09-26 03:51:00,49.5,49.0,29.94,NNE,17,1.0,1.0,98,0.00,,,0.00,WUHU216DAVISVP2,2013-09-26 07:51:00,
2013-09-26 03:56:00,49.7,49.2,29.94,NNE,15,0.0,1.0,98,0.00,,,0.00,WUHU216DAVISVP2,2013-09-26 07:56:00,
2013-09-26 04:01:00,49.7,48.9,29.94,NNE,15,0.0,1.0,97,0.00,,,0.00,WUHU216DAVISVP2,2013-09-26 08:01:00,
2013-09-26 04:06:00,49.6,48.8,29.94,NNE,15,0.0,1.0,97,0.00,,,0.00,WUHU216DAVISVP2,2013-09-26 08:06:00,
2013-09-26 04:11:00,49.3,48.5,29.94,NNE,15,0.0,1.0,97,0.00,,,0.00,WUHU216DAVISVP2,2013-09-26 08:11:00,
2013-09-26 04:16:00,49.3,48.5,29.94,NNE,15,0.0,1.0,97,0.00,,,0.00,WUHU216DAVISVP2,2013-09-26 08:16:00,
2013-09-26 04:21:00,49.5,48.7,29.94,NNE,15,0.0,1.0,97,0.00,,,0.00,WUHU216DAVISVP2,2013-09-26 08:21:00,
2013-09-26 04:26:00,49.5,49.0,29.94,NNE,13,1.0,1.0,98,0.00,,,0.00,WUHU216DAVISVP2,2013-09-26 08:26:00,
2013-09-26 04:31:00,49.7,49.1,29.94,North,360,0.0,2.0,98,0.00,,,0.00,WUHU216DAVISVP2,2013-09-26 08:31:00,
2013-09-26 04:36:00,49.6,49.1,29.95,North,359,0.0,2.0,98,0.00,,,0.00,WUHU216DAVISVP2,2013-09-26 08:36:00,
2013-09-26 04:41:00,49.9,49.3,29.95,North,358,1.0,1.0,98,0.00,,,0.00,WUHU216DAVISVP2,2013-09-26 08:41:00,
2013-09-26 04:46:00,50.1,49.5,29.95,North,359,1.0,1.0,98,0.00,,,0.00,WUHU216DAVISVP2,2013-09-26 08:46:00,
2013-09-26 04:51:00,50.0,49.4,29.95,North,359,0.0,1.0,98,0.00,,,0.00,WUHU216DAVISVP2,2013-09-26 08:51:00,
2013-09-26 04:56:00,50.0,49.4,29.95,North,359,1.0,1.0,98,0.00,,,0.00,WUHU216DAVISVP2,2013-09-26 08:56:00,
2013-09-26 05:01:00,49.9,49.3,29.95,North,359,1.0,1.0,98,0.00,,,0.00,WUHU216DAVISVP2,2013-09-26 09:01:00,
2013-09-26 05:06:00,49.6,48.8,29.95,North,359,0.0,1.0,97,0.00,,,0.00,WUHU216DAVISVP2,2013-09-26 09:06:00,
2013-09-26 05:11:00,49.3,48.5,29.95,North,358,0.0,1.0,97,0.00,,,0.00,WUHU216DAVISVP2,2013-09-26 09:11:00,
2013-09-26 05:16:00,49.2,48.4,29.95,North,359,0.0,1.0,97,0.00,,,0.00,WUHU216DAVISVP2,2013-09-26 09:16:00,
2013-09-26 05:21:00,49.2,48.4,29.96,North,358,0.0,1.0,97,0.00,,,0.00,WUHU216DAVISVP2,2013-09-26 09:21:00,
2013-09-26 05:26:00,49.2,48.6,29.96,North,359,1.0,1.0,98,0.00,,,0.00,WUHU216DAVISVP2,2013-09-26 09:26:00,
2013-09-26 05:31:00,49.1,48.6,29.96,North,359,0.0,1.0,98,0.00,,,0.00,WUHU216DAVISVP2,2013-09-26 09:31:00,
2013-09-26 05:36:00,49.3,48.8,29.96,North,360,0.0,1.0,98,0.00,,,0.00,WUHU216DAVISVP2,2013-09-26 09:36:00,
2013-09-26 05:41:00,49.5,49.0,29.96,North,360,1.0,1.0,98,0.00,,,0.00,WUHU216DAVISVP2,2013-09-26 09:41:00,
2013-09-26 05:46:00,49.6,49.1,29.96,North,349,1.0,1.0,98,0.00,,,0.00,WUHU216DAVISVP2,2013-09-26 09:46:00,
2013-09-26 05:51:00,49.7,49.2,29.96,North,351,1.0,2.0,98,0.00,,,0.00,WUHU216DAVISVP2,2013-09-26 09:51:00,
2013-09-26 05:56:00,49.8,49.2,29.96,North,351,1.0,2.0,98,0.00,,,0.00,WUHU216DAVISVP2,2013-09-26 09:56:00,
2013-09-26 06:01:00,49.7,49.1,29.97,North,352,1.0,1.0,98,0.00,,,0.00,WUHU216DAVISVP2,2013-09-26 10:01:00,
2013-09-26 06:06:00,49.6,49.0,29.97,North,350,1.0,1.0,98,0.00,,,0.00,WUHU216DAVISVP2,2013-09-26 10:06:00,
2013-09-26 06:11:00,49.6,49.0,29.97,North,5,1.0,2.0,98,0.00,,,0.00,WUHU216DAVISVP2,2013-09-26 10:11:00,
2013-09-26 06:16:00,49.7,49.1,29.97,North,3,0.0,2.0,98,0.00,,,0.00,WUHU216DAVISVP2,2013-09-26 10:16:00,
2013-09-26 06:21:00,49.7,49.2,29.97,North,3,1.0,1.0,98,0.00,,,0.00,WUHU216DAVISVP2,2013-09-26 10:21:00,
2013-09-26 06:26:00,49.3,48.7,29.97,North,357,1.0,2.0,98,0.00,,,0.00,WUHU216DAVISVP2,2013-09-26 10:26:00,
2013-09-26 06:31:00,49.2,48.6,29.98,North,356,2.0,2.0,98,0.00,,,0.00,WUHU216DAVISVP2,2013-09-26 10:31:00,
2013-09-26 06:36:00,49.2,48.6,29.98,North,357,1.0,2.0,98,0.00,,,0.00,WUHU216DAVISVP2,2013-09-26 10:36:00,
2013-09-26 06:41:00,49.2,48.7,29.98,North,359,2.0,2.0,98,0.00,,,0.00,WUHU216DAVISVP2,2013-09-26 10:41:00,
2013-09-26 06:46:00,49.2,48.7,29.98,North,6,2.0,2.0,98,0.00,,,0.00,WUHU216DAVISVP2,2013-09-26 10:46:00,
2013-09-26 06:51:00,49.3,48.8,29.98,North,9,1.0,2.0,98,0.00,,,0.00,WUHU216DAVISVP2,2013-09-26 10:51:00,
2013-09-26 06:56:00,49.3,48.8,29.98,North,356,1.0,2.0,98,0.00,,,0.00,WUHU216DAVISVP2,2013-09-26 10:56:00,
2013-09-26 07:01:00,49.3,48.8,29.99,North,359,1.0,2.0,98,0.00,,,0.00,WUHU216DAVISVP2,2013-09-26 11:01:00,
2013-09-26 07:06:00,49.4,48.9,29.99,North,356,1.0,2.0,98,0.00,,,0.00,WUHU216DAVISVP2,2013-09-26 11:06:00,
2013-09-26 07:11:00,49.3,48.7,29.99,North,360,0.0,2.0,98,0.00,,,0.00,WUHU216DAVISVP2,2013-09-26 11:11:00,
2013-09-26 07:16:00,49.2,48.6,29.99,North,360,0.0,2.0,98,0.00,,,0.00,WUHU216DAVISVP2,2013-09-26 11:16:00,
2013-09-26 07:21:00,49.1,48.5,29.99,North,360,0.0,2.0,98,0.00,,,0.00,WUHU216DAVISVP2,2013-09-26 11:21:00,
2013-09-26 07:26:00,49.2,48.6,29.99,North,356,2.0,2.0,98,0.00,,,0.00,WUHU216DAVISVP2,2013-09-26 11:26:00,
2013-09-26 07:31:00,49.3,48.7,30.00,North,358,0.0,2.0,98,0.00,,,0.00,WUHU216DAVISVP2,2013-09-26 11:31:00,
2013-09-26 07:36:00,49.2,48.6,30.00,North,355,1.0,2.0,98,0.00,,,0.00,WUHU216DAVISVP2,2013-09-26 11:36:00,
2013-09-26 07:41:00,49.4,48.8,30.00,North,352,1.0,2.0,98,0.00,,,0.00,WUHU216DAVISVP2,2013-09-26 11:41:00,
2013-09-26 07:46:00,49.6,49.0,30.00,North,10,1.0,2.0,98,0.00,,,0.00,WUHU216DAVISVP2,2013-09-26 11:46:00,
2013-09-26 07:51:00,49.7,49.1,30.00,North,350,2.0,2.0,98,0.00,,,0.00,WUHU216DAVISVP2,2013-09-26 11:51:00,
2013-09-26 07:57:00,49.9,49.3,30.00,North,8,1.0,2.0,98,0.00,,,0.00,WUHU216DAVISVP2,2013-09-26 11:57:00,
2013-09-26 08:02:00,50.0,49.4,30.00,North,4,1.0,2.0,98,0.00,,,0.00,WUHU216DAVISVP2,2013-09-26 12:02:00,
2013-09-26 08:07:00,50.1,49.5,30.00,North,8,1.0,2.0,98,0.00,,,0.00,WUHU216DAVISVP2,2013-09-26 12:07:00,
2013-09-26 08:12:00,50.3,49.7,30.01,NNE,12,1.0,2.0,98,0.00,,,0.00,WUHU216DAVISVP2,2013-09-26 12:12:00,
2013-09-26 08:17:00,50.5,49.9,30.00,NNE,13,1.0,2.0,98,0.00,,,0.00,WUHU216DAVISVP2,2013-09-26 12:17:00,
2013-09-26 08:22:00,50.7,50.1,30.00,North,4,2.0,2.0,98,0.00,,,0.00,WUHU216DAVISVP2,2013-09-26 12:22:00,
2013-09-26 08:27:00,51.1,50.8,30.01,North,359,2.0,3.0,99,0.00,,,0.00,WUHU216DAVISVP2,2013-09-26 12:27:00,
2013-09-26 08:32:00,51.4,51.1,30.01,North,352,2.0,3.0,99,0.00,,,0.00,WUHU216DAVISVP2,2013-09-26 12:32:00,
2013-09-26 08:37:00,51.8,51.5,30.01,North,359,2.0,3.0,99,0.00,,,0.00,WUHU216DAVISVP2,2013-09-26 12:37:00,
2013-09-26 08:42:00,52.1,51.8,30.01,North,11,1.0,3.0,99,0.00,,,0.00,WUHU216DAVISVP2,2013-09-26 12:42:00,
2013-09-26 08:47:00,52.4,52.1,30.01,North,360,1.0,3.0,99,0.00,,,0.00,WUHU216DAVISVP2,2013-09-26 12:47:00,
2013-09-26 08:52:00,52.7,52.4,30.01,North,8,1.0,3.0,99,0.00,,,0.00,WUHU216DAVISVP2,2013-09-26 12:52:00,
2013-09-26 08:57:00,53.0,52.7,30.01,NNW,347,1.0,3.0,99,0.00,,,0.00,WUHU216DAVISVP2,2013-09-26 12:57:00,
2013-09-26 09:02:00,53.4,53.1,30.02,NNW,344,1.0,2.0,99,0.00,,,0.00,WUHU216DAVISVP2,2013-09-26 13:02:00,
2013-09-26 09:07:00,53.8,53.2,30.02,North,358,1.0,2.0,98,0.00,,,0.00,WUHU216DAVISVP2,2013-09-26 13:07:00,
2013-09-26 09:12:00,54.1,53.5,30.02,North,349,0.0,2.0,98,0.00,,,0.00,WUHU216DAVISVP2,2013-09-26 13:12:00,
2013-09-26 09:17:00,54.5,53.9,30.02,NNW,340,1.0,2.0,98,0.00,,,0.00,WUHU216DAVISVP2,2013-09-26 13:17:00,
2013-09-26 09:22:00,54.9,54.0,30.02,North,352,0.0,2.0,97,0.00,,,0.00,WUHU216DAVISVP2,2013-09-26 13:22:00,
2013-09-26 09:27:00,55.5,54.3,30.03,North,352,1.0,2.0,96,0.00,,,0.00,WUHU216DAVISVP2,2013-09-26 13:27:00,
2013-09-26 09:32:00,56.1,54.1,30.03,North,353,1.0,3.0,93,0.00,,,0.00,WUHU216DAVISVP2,2013-09-26 13:32:00,
2013-09-26 09:37:00,56.7,54.4,30.03,North,360,1.0,3.0,92,0.00,,,0.00,WUHU216DAVISVP2,2013-09-26 13:37:00,
2013-09-26 09:42:00,57.3,54.4,30.03,North,6,0.0,2.0,90,0.00,,,0.00,WUHU216DAVISVP2,2013-09-26 13:42:00,
2013-09-26 09:47:00,57.6,54.7,30.03,North,358,0.0,2.0,90,0.00,,,0.00,WUHU216DAVISVP2,2013-09-26 13:47:00,
2013-09-26 09:52:00,57.9,54.3,30.03,North,8,1.0,2.0,88,0.00,,,0.00,WUHU216DAVISVP2,2013-09-26 13:52:00,
2013-09-26 09:57:00,58.3,54.7,30.03,North,355,1.0,2.0,88,0.00,,,0.00,WUHU216DAVISVP2,2013-09-26 13:57:00,
2013-09-26 10:02:00,59.0,54.8,30.03,NNE,13,1.0,2.0,86,0.00,,,0.00,WUHU216DAVISVP2,2013-09-26 14:02:00,
2013-09-26 10:07:00,59.7,55.2,30.03,North,358,0.0,2.0,85,0.00,,,0.00,WUHU216DAVISVP2,2013-09-26 14:07:00,
2013-09-26 10:12:00,60.2,55.0,30.03,NNW,343,0.0,2.0,83,0.00,,,0.00,WUHU216DAVISVP2,2013-09-26 14:12:00,
2013-09-26 10:17:00,60.7,54.1,30.03,NE,34,1.0,4.0,79,0.00,,,0.00,WUHU216DAVISVP2,2013-09-26 14:17:00,
2013-09-26 10:22:00,61.2,54.0,30.03,NNE,13,1.0,4.0,77,0.00,,,0.00,WUHU216DAVISVP2,2013-09-26 14:22:00,
2013-09-26 10:27:00,61.7,54.9,30.03,NE,46,0.0,3.0,78,0.00,,,0.00,WUHU216DAVISVP2,2013-09-26 14:27:00,
2013-09-26 10:32:00,62.2,53.6,30.03,ENE,77,1.0,3.0,73,0.00,,,0.00,WUHU216DAVISVP2,2013-09-26 14:32:00,
2013-09-26 10:37:00,62.6,53.6,30.03,ENE,73,0.0,2.0,72,0.00,,,0.00,WUHU216DAVISVP2,2013-09-26 14:37:00,
2013-09-26 10:42:00,63.1,53.3,30.03,East,86,0.0,1.0,70,0.00,,,0.00,WUHU216DAVISVP2,2013-09-26 14:42:00,
2013-09-26 10:47:00,63.5,52.9,30.03,North,11,1.0,2.0,68,0.00,,,0.00,WUHU216DAVISVP2,2013-09-26 14:47:00,
2013-09-26 10:52:00,64.0,52.2,30.03,NNE,20,0.0,2.0,65,0.00,,,0.00,WUHU216DAVISVP2,2013-09-26 14:52:00,
2013-09-26 10:57:00,64.4,51.7,30.03,NE,43,1.0,2.0,63,0.00,,,0.00,WUHU216DAVISVP2,2013-09-26 14:57:00,
2013-09-26 11:02:00,64.7,52.0,30.03,ENE,78,0.0,2.0,63,0.00,,,0.00,WUHU216DAVISVP2,2013-09-26 15:02:00,
2013-09-26 11:07:00,65.2,52.5,30.03,East,81,0.0,2.0,63,0.00,,,0.00,WUHU216DAVISVP2,2013-09-26 15:07:00,
2013-09-26 11:12:00,65.7,52.0,30.03,ESE,108,2.0,2.0,61,0.00,,,0.00,WUHU216DAVISVP2,2013-09-26 15:12:00,
2013-09-26 11:17:00,65.9,51.3,30.03,East,82,1.0,2.0,59,0.00,,,0.00,WUHU216DAVISVP2,2013-09-26 15:17:00,
2013-09-26 11:22:00,66.1,50.1,30.03,East,80,1.0,3.0,56,0.00,,,0.00,WUHU216DAVISVP2,2013-09-26 15:22:00,
2013-09-26 11:27:00,66.2,50.2,30.03,East,85,1.0,3.0,56,0.00,,,0.00,WUHU216DAVISVP2,2013-09-26 15:27:00,
2013-09-26 11:32:00,66.4,50.8,30.03,East,79,0.0,2.0,57,0.00,,,0.00,WUHU216DAVISVP2,2013-09-26 15:32:00,
2013-09-26 11:37:00,66.6,49.5,30.03,North,354,1.0,3.0,54,0.00,,,0.00,WUHU216DAVISVP2,2013-09-26 15:37:00,
2013-09-26 11:42:00,66.9,50.3,30.03,ESE,105,0.0,3.0,55,0.00,,,0.00,WUHU216DAVISVP2,2013-09-26 15:42:00,
2013-09-26 11:47:00,67.1,50.5,30.03,NNE,24,1.0,3.0,55,0.00,,,0.00,WUHU216DAVISVP2,2013-09-26 15:47:00,
2013-09-26 11:52:00,67.4,50.8,30.03,North,8,1.0,3.0,55,0.00,,,0.00,WUHU216DAVISVP2,2013-09-26 15:52:00,
2013-09-26 11:57:00,67.8,51.7,30.03,WNW,297,0.0,2.0,56,0.00,,,0.00,WUHU216DAVISVP2,2013-09-26 15:57:00,
2013-09-26 12:02:00,68.0,50.3,30.03,NNE,32,1.0,2.0,53,0.00,,,0.00,WUHU216DAVISVP2,2013-09-26 16:02:00,
2013-09-26 12:07:00,68.1,49.4,30.03,NW,318,2.0,6.0,51,0.00,,,0.00,WUHU216DAVISVP2,2013-09-26 16:07:00,
2013-09-26 12:12:00,68.1,49.9,30.03,NE,36,1.0,6.0,52,0.00,,,0.00,WUHU216DAVISVP2,2013-09-26 16:12:00,
2013-09-26 12:17:00,68.2,50.5,30.03,NNE,13,3.0,6.0,53,0.00,,,0.00,WUHU216DAVISVP2,2013-09-26 16:17:00,
2013-09-26 12:22:00,68.3,50.1,30.03,North,354,1.0,6.0,52,0.00,,,0.00,WUHU216DAVISVP2,2013-09-26 16:22:00,
2013-09-26 12:27:00,68.5,50.3,30.03,North,360,1.0,6.0,52,0.00,,,0.00,WUHU216DAVISVP2,2013-09-26 16:27:00,
2013-09-26 12:32:00,68.7,50.4,30.03,NE,36,4.0,5.0,52,0.00,,,0.00,WUHU216DAVISVP2,2013-09-26 16:32:00,
2013-09-26 12:37:00,69.1,49.7,30.03,ENE,63,1.0,4.0,50,0.00,,,0.00,WUHU216DAVISVP2,2013-09-26 16:37:00,
2013-09-26 12:42:00,69.2,49.3,30.03,ESE,118,1.0,4.0,49,0.00,,,0.00,WUHU216DAVISVP2,2013-09-26 16:42:00,
2013-09-26 12:47:00,69.3,49.4,30.03,East,92,0.0,6.0,49,0.00,,,0.00,WUHU216DAVISVP2,2013-09-26 16:47:00,
2013-09-26 12:52:00,69.3,49.9,30.03,East,94,1.0,6.0,50,0.00,,,0.00,WUHU216DAVISVP2,2013-09-26 16:52:00,
2013-09-26 12:57:00,69.6,50.2,30.03,East,86,1.0,5.0,50,0.00,,,0.00,WUHU216DAVISVP2,2013-09-26 16:57:00,
2013-09-26 13:02:00,69.9,49.9,30.02,North,6,2.0,5.0,49,0.00,,,0.00,WUHU216DAVISVP2,2013-09-26 17:02:00,
2013-09-26 13:07:00,70.2,50.7,30.02,ENE,67,0.0,4.0,50,0.00,,,0.00,WUHU216DAVISVP2,2013-09-26 17:07:00,
2013-09-26 13:12:00,70.9,50.8,30.02,North,350,1.0,3.0,49,0.00,,,0.00,WUHU216DAVISVP2,2013-09-26 17:12:00,
2013-09-26 13:17:00,71.4,51.8,30.02,ENE,74,0.0,2.0,50,0.00,,,0.00,WUHU216DAVISVP2,2013-09-26 17:17:00,
2013-09-26 13:22:00,71.7,50.4,30.02,East,96,0.0,4.0,47,0.00,,,0.00,WUHU216DAVISVP2,2013-09-26 17:22:00,
2013-09-26 13:27:00,72.1,50.2,30.02,NNE,29,2.0,4.0,46,0.00,,,0.00,WUHU216DAVISVP2,2013-09-26 17:27:00,
2013-09-26 13:32:00,72.3,49.7,30.01,NNW,333,3.0,6.0,45,0.00,,,0.00,WUHU216DAVISVP2,2013-09-26 17:32:00,
2013-09-26 13:37:00,72.6,50.6,30.02,NNW,327,1.0,6.0,46,0.00,,,0.00,WUHU216DAVISVP2,2013-09-26 17:37:00,
2013-09-26 13:42:00,72.6,48.8,30.02,NNE,18,4.0,6.0,43,0.00,,,0.00,WUHU216DAVISVP2,2013-09-26 17:42:00,
2013-09-26 13:47:00,72.5,48.7,30.01,NNW,343,1.0,6.0,43,0.00,,,0.00,WUHU216DAVISVP2,2013-09-26 17:47:00,
2013-09-26 13:52:00,72.7,50.1,30.01,NE,36,1.0,6.0,45,0.00,,,0.00,WUHU216DAVISVP2,2013-09-26 17:52:00,
2013-09-26 13:57:00,72.6,48.8,30.01,NW,325,3.0,6.0,43,0.00,,,0.00,WUHU216DAVISVP2,2013-09-26 17:57:00,
2013-09-26 14:02:00,72.6,50.0,30.01,ESE,105,3.0,3.0,45,0.00,,,0.00,WUHU216DAVISVP2,2013-09-26 18:02:00,
2013-09-26 14:07:00,72.8,51.4,30.01,NNE,12,2.0,3.0,47,0.00,,,0.00,WUHU216DAVISVP2,2013-09-26 18:07:00,
2013-09-26 14:12:00,73.2,49.9,30.01,NNW,340,1.0,5.0,44,0.00,,,0.00,WUHU216DAVISVP2,2013-09-26 18:12:00,
2013-09-26 14:17:00,73.4,48.8,30.01,NNE,13,2.0,8.0,42,0.00,,,0.00,WUHU216DAVISVP2,2013-09-26 18:17:00,
2013-09-26 14:22:00,73.0,48.5,30.01,NE,53,1.0,8.0,42,0.00,,,0.00,WUHU216DAVISVP2,2013-09-26 18:22:00,
2013-09-26 14:27:00,73.1,50.5,30.01,NNE,19,1.0,8.0,45,0.00,,,0.00,WUHU216DAVISVP2,2013-09-26 18:27:00,
2013-09-26 14:32:00,73.2,49.3,30.01,NNE,30,2.0,7.0,43,0.00,,,0.00,WUHU216DAVISVP2,2013-09-26 18:32:00,
2013-09-26 14:37:00,73.3,50.0,30.01,North,357,1.0,7.0,44,0.00,,,0.00,WUHU216DAVISVP2,2013-09-26 18:37:00,
2013-09-26 14:42:00,73.2,49.9,30.01,NE,49,3.0,4.0,44,0.00,,,0.00,WUHU216DAVISVP2,2013-09-26 18:42:00,
2013-09-26 14:47:00,73.4,49.5,30.01,North,11,3.0,5.0,43,0.00,,,0.00,WUHU216DAVISVP2,2013-09-26 18:47:00,
2013-09-26 14:52:00,73.6,49.0,30.00,East,79,0.0,5.0,42,0.00,,,0.00,WUHU216DAVISVP2,2013-09-26 18:52:00,
2013-09-26 14:57:00,73.8,50.5,30.00,NNE,18,4.0,5.0,44,0.00,,,0.00,WUHU216DAVISVP2,2013-09-26 18:57:00,
2013-09-26 15:02:00,74.0,50.0,30.00,North,359,0.0,4.0,43,0.00,,,0.00,WUHU216DAVISVP2,2013-09-26 19:02:00,
2013-09-26 15:07:00,74.1,50.1,30.00,ENE,63,0.0,4.0,43,0.00,,,0.00,WUHU216DAVISVP2,2013-09-26 19:07:00,
2013-09-26 15:12:00,73.8,51.1,30.00,NE,49,0.0,4.0,45,0.00,,,0.00,WUHU216DAVISVP2,2013-09-26 19:12:00,
2013-09-26 15:17:00,73.6,50.3,30.00,ESE,108,1.0,4.0,44,0.00,,,0.00,WUHU216DAVISVP2,2013-09-26 19:17:00,
2013-09-26 15:22:00,73.7,50.4,30.00,NE,40,2.0,4.0,44,0.00,,,0.00,WUHU216DAVISVP2,2013-09-26 19:22:00,
2013-09-26 15:27:00,73.9,49.3,30.00,NE,43,1.0,3.0,42,0.00,,,0.00,WUHU216DAVISVP2,2013-09-26 19:27:00,
2013-09-26 15:32:00,73.7,50.4,30.00,ESE,120,1.0,4.0,44,0.00,,,0.00,WUHU216DAVISVP2,2013-09-26 19:32:00,
2013-09-26 15:37:00,73.5,48.9,30.00,East,84,2.0,4.0,42,0.00,,,0.00,WUHU216DAVISVP2,2013-09-26 19:37:00,
2013-09-26 15:42:00,73.3,50.0,30.00,East,84,1.0,4.0,44,0.00,,,0.00,WUHU216DAVISVP2,2013-09-26 19:42:00,
2013-09-26 15:47:00,73.2,49.3,30.00,SE,136,0.0,4.0,43,0.00,,,0.00,WUHU216DAVISVP2,2013-09-26 19:47:00,
2013-09-26 15:52:00,73.3,50.1,30.00,East,84,1.0,3.0,44,0.00,,,0.00,WUHU216DAVISVP2,2013-09-26 19:52:00,
2013-09-26 15:57:00,73.5,49.6,30.00,East,94,0.0,3.0,43,0.00,,,0.00,WUHU216DAVISVP2,2013-09-26 19:57:00,
2013-09-26 16:02:00,73.4,48.8,30.00,NE,36,3.0,5.0,42,0.00,,,0.00,WUHU216DAVISVP2,2013-09-26 20:02:00,
2013-09-26 16:07:00,73.3,48.7,30.00,NE,49,1.0,5.0,42,0.00,,,0.00,WUHU216DAVISVP2,2013-09-26 20:07:00,
2013-09-26 16:12:00,73.3,49.4,30.00,East,82,0.0,5.0,43,0.00,,,0.00,WUHU216DAVISVP2,2013-09-26 20:12:00,
2013-09-26 16:17:00,73.3,48.7,30.00,NNE,32,1.0,5.0,42,0.00,,,0.00,WUHU216DAVISVP2,2013-09-26 20:17:00,
2013-09-26 16:22:00,73.2,48.7,30.00,East,95,2.0,3.0,42,0.00,,,0.00,WUHU216DAVISVP2,2013-09-26 20:22:00,
2013-09-26 16:27:00,73.1,49.2,30.00,NE,56,1.0,4.0,43,0.00,,,0.00,WUHU216DAVISVP2,2013-09-26 20:27:00,
2013-09-26 16:32:00,73.0,49.8,30.00,East,96,0.0,4.0,44,0.00,,,0.00,WUHU216DAVISVP2,2013-09-26 20:32:00,
2013-09-26 16:37:00,73.0,48.5,30.00,East,79,2.0,3.0,42,0.00,,,0.00,WUHU216DAVISVP2,2013-09-26 20:37:00,
2013-09-26 16:42:00,72.9,49.0,30.00,East,94,1.0,3.0,43,0.00,,,0.00,WUHU216DAVISVP2,2013-09-26 20:42:00,
2013-09-26 16:47:00,73.0,49.1,30.00,East,95,1.0,3.0,43,0.00,,,0.00,WUHU216DAVISVP2,2013-09-26 20:47:00,
2013-09-26 16:52:00,73.0,49.1,30.00,NE,47,1.0,3.0,43,0.00,,,0.00,WUHU216DAVISVP2,2013-09-26 20:52:00,
2013-09-26 16:57:00,72.9,49.0,30.00,East,88,0.0,3.0,43,0.00,,,0.00,WUHU216DAVISVP2,2013-09-26 20:57:00,
2013-09-26 17:02:00,72.9,49.0,30.00,NNE,25,1.0,6.0,43,0.00,,,0.00,WUHU216DAVISVP2,2013-09-26 21:02:00,
2013-09-26 17:07:00,72.8,48.3,30.00,ESE,105,1.0,6.0,42,0.00,,,0.00,WUHU216DAVISVP2,2013-09-26 21:07:00,
2013-09-26 17:12:00,72.7,48.9,30.00,East,88,1.0,6.0,43,0.00,,,0.00,WUHU216DAVISVP2,2013-09-26 21:12:00,
2013-09-26 17:17:00,72.7,48.9,30.00,East,86,1.0,5.0,43,0.00,,,0.00,WUHU216DAVISVP2,2013-09-26 21:17:00,
2013-09-26 17:22:00,72.7,48.3,30.00,ENE,77,2.0,2.0,42,0.00,,,0.00,WUHU216DAVISVP2,2013-09-26 21:22:00,
2013-09-26 17:27:00,72.6,49.4,30.00,ENE,65,1.0,3.0,44,0.00,,,0.00,WUHU216DAVISVP2,2013-09-26 21:27:00,
2013-09-26 17:32:00,72.4,48.6,30.00,ENE,75,0.0,3.0,43,0.00,,,0.00,WUHU216DAVISVP2,2013-09-26 21:32:00,
2013-09-26 17:37:00,72.5,48.7,30.00,North,355,0.0,2.0,43,0.00,,,0.00,WUHU216DAVISVP2,2013-09-26 21:37:00,
2013-09-26 17:42:00,72.6,49.4,30.01,North,355,0.0,2.0,44,0.00,,,0.00,WUHU216DAVISVP2,2013-09-26 21:42:00,
2013-09-26 17:47:00,72.6,49.4,30.01,ENE,68,0.0,2.0,44,0.00,,,0.00,WUHU216DAVISVP2,2013-09-26 21:47:00,
2013-09-26 17:52:00,72.6,48.1,30.01,East,82,0.0,2.0,42,0.00,,,0.00,WUHU216DAVISVP2,2013-09-26 21:52:00,
2013-09-26 17:57:00,72.7,48.2,30.01,East,91,0.0,2.0,42,0.00,,,0.00,WUHU216DAVISVP2,2013-09-26 21:57:00,
2013-09-26 18:02:00,72.6,48.8,30.01,East,81,0.0,2.0,43,0.00,,,0.00,WUHU216DAVISVP2,2013-09-26 22:02:00,
2013-09-26 18:07:00,72.5,48.1,30.01,East,82,0.0,2.0,42,0.00,,,0.00,WUHU216DAVISVP2,2013-09-26 22:07:00,
2013-09-26 18:12:00,72.6,48.8,30.01,East,82,0.0,2.0,43,0.00,,,0.00,WUHU216DAVISVP2,2013-09-26 22:12:00,
2013-09-26 18:17:00,72.8,48.3,30.01,East,80,0.0,2.0,42,0.00,,,0.00,WUHU216DAVISVP2,2013-09-26 22:17:00,
2013-09-26 18:22:00,72.6,48.8,30.01,East,84,0.0,1.0,43,0.00,,,0.00,WUHU216DAVISVP2,2013-09-26 22:22:00,
2013-09-26 18:27:00,72.4,49.2,30.01,East,84,0.0,1.0,44,0.00,,,0.00,WUHU216DAVISVP2,2013-09-26 22:27:00,
2013-09-26 18:32:00,72.1,49.6,30.01,East,83,0.0,1.0,45,0.00,,,0.00,WUHU216DAVISVP2,2013-09-26 22:32:00,
2013-09-26 18:37:00,71.9,50.0,30.01,East,84,0.0,1.0,46,0.00,,,0.00,WUHU216DAVISVP2,2013-09-26 22:37:00,
2013-09-26 18:42:00,71.8,49.9,30.01,East,84,0.0,0.0,46,0.00,,,0.00,WUHU216DAVISVP2,2013-09-26 22:42:00,
2013-09-26 18:47:00,71.8,49.3,30.01,East,84,0.0,0.0,45,0.00,,,0.00,WUHU216DAVISVP2,2013-09-26 22:47:00,
2013-09-26 18:53:00,71.6,49.1,30.01,East,84,0.0,0.0,45,0.00,,,0.00,WUHU216DAVISVP2,2013-09-26 22:53:00,
2013-09-26 18:58:00,71.3,49.4,30.01,East,83,0.0,0.0,46,0.00,,,0.00,WUHU216DAVISVP2,2013-09-26 22:58:00,
2013-09-26 19:03:00,71.1,50.4,30.01,East,84,0.0,0.0,48,0.00,,,0.00,WUHU216DAVISVP2,2013-09-26 23:03:00,
2013-09-26 19:08:00,70.7,49.5,30.01,East,83,0.0,0.0,47,0.00,,,0.00,WUHU216DAVISVP2,2013-09-26 23:08:00,
2013-09-26 19:13:00,70.1,49.5,30.01,East,84,0.0,0.0,48,0.00,,,0.00,WUHU216DAVISVP2,2013-09-26 23:13:00,
2013-09-26 19:18:00,69.2,49.8,30.01,East,84,0.0,0.0,50,0.00,,,0.00,WUHU216DAVISVP2,2013-09-26 23:18:00,
2013-09-26 19:23:00,68.4,49.1,30.01,East,84,0.0,0.0,50,0.00,,,0.00,WUHU216DAVISVP2,2013-09-26 23:23:00,
2013-09-26 19:28:00,67.8,49.6,30.02,East,84,0.0,0.0,52,0.00,,,0.00,WUHU216DAVISVP2,2013-09-26 23:28:00,
2013-09-26 19:33:00,67.1,51.5,30.02,South,176,1.0,1.0,57,0.00,,,0.00,WUHU216DAVISVP2,2013-09-26 23:33:00,
2013-09-26 19:38:00,66.2,51.1,30.02,SSW,205,0.0,2.0,58,0.00,,,0.00,WUHU216DAVISVP2,2013-09-26 23:38:00,
2013-09-26 19:43:00,65.5,51.4,30.02,SSW,205,0.0,2.0,60,0.00,,,0.00,WUHU216DAVISVP2,2013-09-26 23:43:00,
2013-09-26 19:48:00,65.0,51.8,30.02,SSW,205,0.0,2.0,62,0.00,,,0.00,WUHU216DAVISVP2,2013-09-26 23:48:00,
2013-09-26 19:53:00,64.4,51.7,30.02,SSW,205,0.0,1.0,63,0.00,,,0.00,WUHU216DAVISVP2,2013-09-26 23:53:00,
2013-09-26 19:58:00,63.9,52.1,30.02,SSW,206,0.0,0.0,65,0.00,,,0.00,WUHU216DAVISVP2,2013-09-26 23:58:00,
2013-09-26 20:03:00,63.5,51.3,30.02,SSW,205,0.0,0.0,64,0.00,,,0.00,WUHU216DAVISVP2,2013-09-27 00:03:00,
2013-09-26 20:10:00,63.3,51.1,30.03,SSW,205,0.0,0.0,64,0.00,,,0.00,WUHU216DAVISVP2,2013-09-27 00:10:00,
2013-09-26 20:15:00,62.6,51.2,30.03,SSW,205,0.0,0.0,66,0.00,,,0.00,WUHU216DAVISVP2,2013-09-27 00:15:00,
2013-09-26 20:20:00,62.1,51.2,30.03,SSW,205,0.0,0.0,67,0.00,,,0.00,WUHU216DAVISVP2,2013-09-27 00:20:00,
2013-09-26 20:25:00,61.6,50.7,30.03,SSW,206,0.0,0.0,67,0.00,,,0.00,WUHU216DAVISVP2,2013-09-27 00:25:00,
2013-09-26 20:30:00,61.3,50.8,30.03,SSW,206,0.0,0.0,68,0.00,,,0.00,WUHU216DAVISVP2,2013-09-27 00:30:00,
2013-09-26 20:35:00,60.9,51.6,30.03,SSW,205,0.0,0.0,71,0.00,,,0.00,WUHU216DAVISVP2,2013-09-27 00:35:00,
2013-09-26 20:40:00,60.4,51.1,30.03,SSW,205,0.0,0.0,71,0.00,,,0.00,WUHU216DAVISVP2,2013-09-27 00:40:00,
2013-09-26 20:45:00,60.0,51.4,30.04,SSW,205,0.0,1.0,73,0.00,,,0.00,WUHU216DAVISVP2,2013-09-27 00:45:00,
2013-09-26 20:50:00,59.9,51.3,30.03,SSW,205,0.0,1.0,73,0.00,,,0.00,WUHU216DAVISVP2,2013-09-27 00:50:00,
2013-09-26 20:55:00,59.9,51.7,30.04,SSW,205,0.0,1.0,74,0.00,,,0.00,WUHU216DAVISVP2,2013-09-27 00:55:00,
2013-09-26 21:00:00,59.8,51.6,30.04,SSW,205,0.0,1.0,74,0.00,,,0.00,WUHU216DAVISVP2,2013-09-27 01:00:00,
2013-09-26 21:05:00,59.4,51.1,30.04,SSW,205,0.0,1.0,74,0.00,,,0.00,WUHU216DAVISVP2,2013-09-27 01:05:00,
2013-09-26 21:10:00,58.8,51.2,30.04,SSW,206,0.0,1.0,76,0.00,,,0.00,WUHU216DAVISVP2,2013-09-27 01:10:00,
2013-09-26 21:15:00,58.4,51.6,30.04,SSW,205,0.0,1.0,78,0.00,,,0.00,WUHU216DAVISVP2,2013-09-27 01:15:00,
2013-09-26 21:20:00,57.9,50.7,30.04,SSW,205,0.0,1.0,77,0.00,,,0.00,WUHU216DAVISVP2,2013-09-27 01:20:00,
2013-09-26 21:25:00,57.7,50.5,30.05,SSW,205,0.0,1.0,77,0.00,,,0.00,WUHU216DAVISVP2,2013-09-27 01:25:00,
2013-09-26 21:30:00,57.6,49.7,30.05,SSW,205,0.0,0.0,75,0.00,,,0.00,WUHU216DAVISVP2,2013-09-27 01:30:00,
2013-09-26 21:35:00,57.9,49.8,30.05,SSW,205,0.0,0.0,74,0.00,,,0.00,WUHU216DAVISVP2,2013-09-27 01:35:00,
2013-09-26 21:40:00,58.1,49.6,30.05,SSW,205,0.0,0.0,73,0.00,,,0.00,WUHU216DAVISVP2,2013-09-27 01:40:00,
2013-09-26 21:45:00,58.2,49.7,30.05,SSW,205,0.0,0.0,73,0.00,,,0.00,WUHU216DAVISVP2,2013-09-27 01:45:00,
2013-09-26 21:50:00,58.1,49.6,30.05,SSW,205,0.0,0.0,73,0.00,,,0.00,WUHU216DAVISVP2,2013-09-27 01:50:00,
2013-09-26 21:55:00,58.0,49.9,30.05,SSW,205,0.0,0.0,74,0.00,,,0.00,WUHU216DAVISVP2,2013-09-27 01:55:00,
2013-09-26 22:00:00,57.8,50.4,30.05,SSW,205,0.0,0.0,76,0.00,,,0.00,WUHU216DAVISVP2,2013-09-27 02:00:00,
2013-09-26 22:05:00,57.5,50.1,30.06,SSW,206,0.0,0.0,76,0.00,,,0.00,WUHU216DAVISVP2,2013-09-27 02:05:00,
2013-09-26 22:10:00,57.0,49.9,30.06,SSW,206,0.0,0.0,77,0.00,,,0.00,WUHU216DAVISVP2,2013-09-27 02:10:00,
2013-09-26 22:15:00,56.5,49.5,30.06,SSW,205,0.0,0.0,77,0.00,,,0.00,WUHU216DAVISVP2,2013-09-27 02:15:00,
2013-09-26 22:20:00,56.4,49.4,30.06,SSW,205,0.0,0.0,77,0.00,,,0.00,WUHU216DAVISVP2,2013-09-27 02:20:00,
2013-09-26 22:25:00,56.4,49.4,30.06,SSW,205,0.0,0.0,77,0.00,,,0.00,WUHU216DAVISVP2,2013-09-27 02:25:00,
2013-09-26 22:30:00,56.5,49.5,30.06,SSW,205,0.0,0.0,77,0.00,,,0.00,WUHU216DAVISVP2,2013-09-27 02:30:00,
2013-09-26 22:35:00,56.5,49.5,30.06,SSW,205,0.0,0.0,77,0.00,,,0.00,WUHU216DAVISVP2,2013-09-27 02:35:00,
2013-09-26 22:40:00,56.4,49.7,30.06,SSW,205,0.0,0.0,78,0.00,,,0.00,WUHU216DAVISVP2,2013-09-27 02:40:00,
2013-09-26 22:45:00,56.2,49.5,30.06,SSW,205,0.0,0.0,78,0.00,,,0.00,WUHU216DAVISVP2,2013-09-27 02:45:00,
2013-09-26 22:50:00,56.0,49.6,30.06,SSW,205,0.0,0.0,79,0.00,,,0.00,WUHU216DAVISVP2,2013-09-27 02:50:00,
2013-09-26 22:55:00,55.8,49.8,30.06,SSW,205,0.0,0.0,80,0.00,,,0.00,WUHU216DAVISVP2,2013-09-27 02:55:00,
2013-09-26 23:00:00,55.6,49.6,30.06,SSW,205,0.0,0.0,80,0.00,,,0.00,WUHU216DAVISVP2,2013-09-27 03:00:00,
2013-09-26 23:05:00,55.4,49.7,30.07,SSW,205,0.0,0.0,81,0.00,,,0.00,WUHU216DAVISVP2,2013-09-27 03:05:00,
2013-09-26 23:10:00,55.2,49.5,30.07,SSW,205,0.0,0.0,81,0.00,,,0.00,WUHU216DAVISVP2,2013-09-27 03:10:00,
2013-09-26 23:15:00,54.8,49.4,30.07,SSW,205,0.0,0.0,82,0.00,,,0.00,WUHU216DAVISVP2,2013-09-27 03:15:00,
2013-09-26 23:20:00,54.5,49.5,30.07,SSW,205,0.0,0.0,83,0.00,,,0.00,WUHU216DAVISVP2,2013-09-27 03:20:00,
2013-09-26 23:25:00,54.3,49.3,30.07,SSW,205,0.0,0.0,83,0.00,,,0.00,WUHU216DAVISVP2,2013-09-27 03:25:00,
2013-09-26 23:30:00,53.9,49.2,30.07,SSW,205,0.0,0.0,84,0.00,,,0.00,WUHU216DAVISVP2,2013-09-27 03:30:00,
2013-09-26 23:35:00,53.6,48.9,30.07,SSW,205,0.0,0.0,84,0.00,,,0.00,WUHU216DAVISVP2,2013-09-27 03:35:00,
2013-09-26 23:40:00,53.4,49.0,30.07,SSW,205,0.0,0.0,85,0.00,,,0.00,WUHU216DAVISVP2,2013-09-27 03:40:00,
2013-09-26 23:45:00,53.6,48.9,30.07,SSW,205,0.0,0.0,84,0.00,,,0.00,WUHU216DAVISVP2,2013-09-27 03:45:00,
2013-09-26 23:50:00,53.7,49.0,30.07,SSW,205,0.0,0.0,84,0.00,,,0.00,WUHU216DAVISVP2,2013-09-27 03:50:00,
2013-09-26 23:55:00,53.9,48.9,30.07,SSW,206,0.0,0.0,83,0.00,,,0.00,WUHU216DAVISVP2,2013-09-27 03:55:00,